Airfield :
LOGIN :

Register | Disclaimer

   EN    FR    IT 

 










Legend :    VFR   Marginal VFR   IFR   Intensive IFR   Very Intensive IFR
Visi :
Ceiling :
>= 8 km
>= 3000ft
5 to 8 km
1000 to 3000 ft
1500m to 5 km
500 to 1000 ft
800 to 1500m
200 to 500 ft
< 800m
< 200 ft
Symbols :   Thunderstorms  Fog  Heavy snow  Heavy precipitations  Wind > 20 kt
SIGMETs :     Misc.  Thunderstorms  Icing  Turbulence  Mountain Waves  Volcanic Ashes







- Airport Elevation : 72 ft
- IATA code : UDE


EHVK - Volkel Airbase

CURRENT METAR :
  • 190725Z AUTO 21003KT 130V240 9999 NCD 02/00 Q1027 BLU VRB02KT 9999 SCT030

EXPIRED METARs :
  • 190655Z AUTO VRB02KT 9999 NCD M01/M01 Q1027 BLU VRB02KT 9999 SCT030
  • 190625Z AUTO 17001KT 9999 FEW032 M02/M03 Q1027 BLU VRB02KT 9999 SCT030
  • 190555Z AUTO 23001KT 9999 BKN033/// M01/M01 Q1026 BLU VRB02KT 9999 SCT030
  • 190525Z AUTO 18001KT 9999 SCT035 M02/M02 Q1026 BLU
  • 190455Z AUTO 22001KT 9999 SCT033 M02/M02 Q1026 BLU
  • 190425Z AUTO 25003KT 180V320 9999 NCD M01/M02 Q1026 BLU

TAF TAF EHVK
Valid from the 19 at 06:00 until the 19 at 18:00 UTC


190540Z 1906/1918 VRB02KT 9999 SCT025
PROB30
TEMPO 1906/1908 SCT012 BKN015
BECMG 1909/1911 25006KT
BECMG 1916/1918 20005KT
No reported NOTAMs for that airfield.



MET'MAP, your aeronautical weather chart ! - Copyright ORBIFLY December 2007 - Disclaimer

ORBIFLY MET'MAP TEAM :

Programming & Development : Alexandra Zaïnal
Concept & Development : Baudouin d'Aumeries
Co-Development & Prog : Marc-Olivier Méhu
Technical & hardware support : Manuel Goepfert

Contact : metmap@orbifly.com




SOURCES & CREDITS :

   NOAA